Time;durP1;ratioP1;P1;durP2;ratioP2;P2;SDS_P1;SDS_P2;PMS_P1;PMS_P2;Temp;Humidity;BMP_temperature;BMP_pressure;BME280_temperature;BME280_humidity;BME280_pressure;Samples;Min_cycle;Max_cycle;Signal;HPM_P1;HPM_P2
2021/12/11 00:01:51;;;;;;;21.52;13.48;;;;;;;;;;4841148;29;20049;-67
2021/12/11 00:04:28;;;;;;;31.52;14.60;;;;;;;;;;4841919;29;20042;-67
2021/12/11 00:06:56;;;;;;;23.23;15.43;;;;;;;;;;4841830;29;20112;-67
2021/12/11 00:09:30;;;;;;;27.05;15.70;;;;;;;;;;4841899;29;20056;-66
2021/12/11 00:12:06;;;;;;;24.27;15.07;;;;;;;;;;4841861;29;20045;-67
2021/12/11 00:14:36;;;;;;;23.58;14.88;;;;;;;;;;4841931;29;20048;-67
2021/12/11 00:17:03;;;;;;;24.25;14.02;;;;;;;;;;4841849;29;20046;-67
2021/12/11 00:19:32;;;;;;;26.40;14.93;;;;;;;;;;4841449;29;20537;-68
2021/12/11 00:22:11;;;;;;;21.58;14.15;;;;;;;;;;4841121;29;20045;-67
2021/12/11 00:24:38;;;;;;;25.75;15.32;;;;;;;;;;4837888;29;20635;-68
2021/12/11 00:27:11;;;;;;;25.30;14.40;;;;;;;;;;4841238;29;20049;-65
2021/12/11 00:29:39;;;;;;;30.00;14.60;;;;;;;;;;4840095;29;20056;-67
2021/12/11 00:32:07;;;;;;;23.42;13.65;;;;;;;;;;4841595;29;20034;-67
2021/12/11 00:34:37;;;;;;;24.73;14.52;;;;;;;;;;4840577;29;20046;-66
2021/12/11 00:37:07;;;;;;;23.10;15.05;;;;;;;;;;4841093;29;20375;-67
2021/12/11 00:39:42;;;;;;;21.20;14.10;;;;;;;;;;4841025;29;20037;-67
2021/12/11 00:42:12;;;;;;;26.02;15.57;;;;;;;;;;4841203;29;20057;-66
2021/12/11 00:44:48;;;;;;;27.00;16.27;;;;;;;;;;4841485;29;20599;-67
2021/12/11 00:47:22;;;;;;;24.65;14.98;;;;;;;;;;4840641;29;20123;-67
2021/12/11 00:49:55;;;;;;;22.40;13.43;;;;;;;;;;4839108;29;20045;-67
2021/12/11 00:52:32;;;;;;;25.60;14.90;;;;;;;;;;4841223;29;20048;-65
2021/12/11 00:54:58;;;;;;;24.23;15.57;;;;;;;;;;4841037;29;20041;-67
2021/12/11 00:57:24;;;;;;;25.02;15.43;;;;;;;;;;4840806;29;20022;-66
2021/12/11 01:00:22;;;;;;;24.25;15.10;;;;;;;;;;4840510;29;20067;-67
2021/12/11 01:02:53;;;;;;;22.77;13.63;;;;;;;;;;4830074;29;20054;-67
2021/12/11 01:05:20;;;;;;;25.92;14.98;;;;;;;;;;4841029;29;20087;-66
2021/12/11 01:07:47;;;;;;;22.30;14.05;;;;;;;;;;4841521;29;20384;-66
2021/12/11 01:10:25;;;;;;;26.30;15.68;;;;;;;;;;4840959;29;20044;-67
2021/12/11 01:13:02;;;;;;;25.52;15.23;;;;;;;;;;4840381;29;20494;-65
2021/12/11 01:15:35;;;;;;;23.50;14.15;;;;;;;;;;4841195;29;20038;-66
2021/12/11 01:20:46;;;;;;;23.17;14.30;;;;;;;;;;4840485;29;19923;-65
2021/12/11 01:23:29;;;;;;;23.70;14.95;;;;;;;;;;4840806;29;20583;-67
2021/12/11 01:25:55;;;;;;;27.77;15.13;;;;;;;;;;4840605;29;20451;-67
2021/12/11 01:28:21;;;;;;;26.60;16.55;;;;;;;;;;4840301;29;20113;-67
2021/12/11 01:30:47;;;;;;;28.08;17.90;;;;;;;;;;4840903;29;20060;-65
2021/12/11 01:33:13;;;;;;;27.73;16.58;;;;;;;;;;4841228;29;20505;-66
2021/12/11 01:35:40;;;;;;;31.30;17.60;;;;;;;;;;4840268;29;20102;-66
2021/12/11 01:38:32;;;;;;;28.20;16.38;;;;;;;;;;4840054;29;20103;-66
2021/12/11 01:41:04;;;;;;;27.52;16.20;;;;;;;;;;4838432;29;20512;-65
2021/12/11 01:43:33;;;;;;;26.75;16.38;;;;;;;;;;4840912;29;20390;-65
2021/12/11 01:46:00;;;;;;;26.15;16.63;;;;;;;;;;4840797;29;20036;-66
2021/12/11 01:48:34;;;;;;;25.77;15.82;;;;;;;;;;4840589;29;20454;-66
2021/12/11 01:51:07;;;;;;;25.13;15.30;;;;;;;;;;4839171;29;20042;-66
2021/12/11 01:53:38;;;;;;;22.42;14.10;;;;;;;;;;4840829;29;20042;-66
2021/12/11 01:56:19;;;;;;;23.02;14.23;;;;;;;;;;4840336;29;20038;-65
2021/12/11 01:58:55;;;;;;;19.45;12.63;;;;;;;;;;4840343;29;20446;-68
2021/12/11 02:01:31;;;;;;;23.40;13.27;;;;;;;;;;4840892;29;20030;-66
2021/12/11 02:03:58;;;;;;;23.20;13.57;;;;;;;;;;4838779;29;20038;-66
2021/12/11 02:06:29;;;;;;;18.80;12.25;;;;;;;;;;4840726;29;20041;-66
2021/12/11 02:08:56;;;;;;;16.05;10.57;;;;;;;;;;4840562;29;20133;-66
2021/12/11 02:11:27;;;;;;;21.13;11.43;;;;;;;;;;4841735;29;20041;-67
2021/12/11 02:14:03;;;;;;;17.98;11.23;;;;;;;;;;4844311;29;20059;-66
2021/12/11 02:16:34;;;;;;;18.35;10.63;;;;;;;;;;4843841;29;20034;-65
2021/12/11 02:19:09;;;;;;;16.17;9.77;;;;;;;;;;4843560;29;20486;-66
2021/12/11 02:21:50;;;;;;;15.68;9.73;;;;;;;;;;4843591;29;20099;-65
2021/12/11 02:24:23;;;;;;;14.52;8.65;;;;;;;;;;4843565;29;20045;-66
2021/12/11 02:26:49;;;;;;;14.52;8.98;;;;;;;;;;4843273;29;20049;-66
2021/12/11 02:29:23;;;;;;;12.95;8.27;;;;;;;;;;4842540;29;20037;-65
2021/12/11 02:31:59;;;;;;;12.05;7.57;;;;;;;;;;4840750;29;20069;-66
2021/12/11 02:34:34;;;;;;;13.10;7.38;;;;;;;;;;4843056;29;20046;-66
2021/12/11 02:37:06;;;;;;;11.35;7.70;;;;;;;;;;4843834;29;20554;-66
2021/12/11 02:39:54;;;;;;;14.43;8.02;;;;;;;;;;4842640;29;20038;-65
2021/12/11 02:42:29;;;;;;;11.93;7.60;;;;;;;;;;4842707;29;20037;-67
2021/12/11 02:45:03;;;;;;;11.73;7.60;;;;;;;;;;4843523;29;20061;-65
2021/12/11 02:47:33;;;;;;;14.18;7.22;;;;;;;;;;4843157;29;20044;-65
2021/12/11 02:50:18;;;;;;;13.15;7.35;;;;;;;;;;4843563;29;20030;-65
2021/12/11 02:52:55;;;;;;;11.52;7.20;;;;;;;;;;4843090;29;20394;-65
2021/12/11 02:55:31;;;;;;;11.60;7.65;;;;;;;;;;4842733;29;20044;-66
2021/12/11 02:58:03;;;;;;;13.95;7.70;;;;;;;;;;4843077;29;20026;-66
2021/12/11 03:00:32;;;;;;;11.88;7.32;;;;;;;;;;4843161;29;20083;-67
2021/12/11 03:03:05;;;;;;;14.18;7.85;;;;;;;;;;4842646;29;20133;-66
2021/12/11 03:06:04;;;;;;;13.45;8.02;;;;;;;;;;4843616;29;20040;-67
2021/12/11 03:08:30;;;;;;;11.85;7.45;;;;;;;;;;4842818;29;20046;-67
2021/12/11 03:11:00;;;;;;;11.27;7.32;;;;;;;;;;4842667;29;20056;-65
2021/12/11 03:13:29;;;;;;;12.70;7.75;;;;;;;;;;4842491;29;20038;-66
2021/12/11 03:15:55;;;;;;;9.82;6.30;;;;;;;;;;4842739;29;20559;-65
2021/12/11 03:18:21;;;;;;;10.85;6.75;;;;;;;;;;4836917;29;20038;-66
2021/12/11 03:20:48;;;;;;;9.63;5.80;;;;;;;;;;4842109;29;20133;-67
2021/12/11 03:23:15;;;;;;;9.15;6.13;;;;;;;;;;4842765;29;20056;-67
2021/12/11 03:25:42;;;;;;;10.73;6.68;;;;;;;;;;4856486;29;20030;-66
2021/12/11 03:28:09;;;;;;;10.07;6.63;;;;;;;;;;4826059;29;20038;-67
2021/12/11 03:30:41;;;;;;;8.55;5.90;;;;;;;;;;4842388;29;20034;-66
2021/12/11 03:33:16;;;;;;;9.10;5.63;;;;;;;;;;4841850;29;20038;-67
2021/12/11 03:35:43;;;;;;;8.63;5.75;;;;;;;;;;4842596;29;20041;-66
2021/12/11 03:38:10;;;;;;;10.40;6.05;;;;;;;;;;4842637;29;20034;-67
2021/12/11 03:40:38;;;;;;;10.93;6.57;;;;;;;;;;4840728;29;20057;-67
2021/12/11 03:43:08;;;;;;;12.05;8.35;;;;;;;;;;4842318;29;20188;-66
2021/12/11 03:45:37;;;;;;;11.55;7.65;;;;;;;;;;4842548;29;20066;-66
2021/12/11 03:48:10;;;;;;;13.07;6.93;;;;;;;;;;4841696;29;20061;-66
2021/12/11 03:50:38;;;;;;;12.05;7.32;;;;;;;;;;4842217;29;20045;-67
2021/12/11 03:53:05;;;;;;;12.57;7.15;;;;;;;;;;4842366;29;20040;-67
2021/12/11 03:55:36;;;;;;;11.93;7.40;;;;;;;;;;4841925;29;20072;-66
2021/12/11 03:58:04;;;;;;;12.80;7.82;;;;;;;;;;4841966;29;20050;-66
2021/12/11 04:00:38;;;;;;;14.77;8.70;;;;;;;;;;4841650;29;20026;-67
2021/12/11 04:03:06;;;;;;;16.88;8.32;;;;;;;;;;4841196;29;20065;-67
2021/12/11 04:05:41;;;;;;;14.65;8.45;;;;;;;;;;4841949;29;20108;-65
2021/12/11 04:08:10;;;;;;;14.25;8.40;;;;;;;;;;4841995;29;20049;-66
2021/12/11 04:10:35;;;;;;;13.13;7.70;;;;;;;;;;4840161;29;20435;-67
2021/12/11 04:13:10;;;;;;;17.00;9.23;;;;;;;;;;4841686;29;20163;-66
2021/12/11 04:15:38;;;;;;;26.75;13.95;;;;;;;;;;4842045;29;20121;-66
2021/12/11 04:18:06;;;;;;;12.82;8.23;;;;;;;;;;4841383;29;20087;-66
2021/12/11 04:20:36;;;;;;;13.65;7.57;;;;;;;;;;4841632;29;20037;-65
2021/12/11 04:23:04;;;;;;;14.95;8.00;;;;;;;;;;4841462;29;20042;-67
2021/12/11 04:25:29;;;;;;;17.17;8.80;;;;;;;;;;4840630;29;20121;-66
2021/12/11 04:27:56;;;;;;;11.93;7.68;;;;;;;;;;4841593;29;20121;-66
2021/12/11 04:30:23;;;;;;;15.38;8.25;;;;;;;;;;4841460;29;20026;-65
2021/12/11 04:32:51;;;;;;;14.23;8.38;;;;;;;;;;4840588;29;20100;-66
2021/12/11 04:35:18;;;;;;;16.00;9.43;;;;;;;;;;4841007;29;20022;-67
2021/12/11 04:37:45;;;;;;;17.42;8.77;;;;;;;;;;4841234;29;20049;-67
2021/12/11 04:40:18;;;;;;;17.65;9.07;;;;;;;;;;4841017;29;20034;-67
2021/12/11 04:43:10;;;;;;;21.17;10.63;;;;;;;;;;4841055;29;20512;-67
2021/12/11 04:45:40;;;;;;;21.50;10.23;;;;;;;;;;4841143;29;20057;-67
2021/12/11 04:48:17;;;;;;;17.85;10.18;;;;;;;;;;4840752;29;20101;-67
2021/12/11 04:51:00;;;;;;;20.30;10.02;;;;;;;;;;4841066;29;20046;-67
2021/12/11 04:53:45;;;;;;;23.85;9.82;;;;;;;;;;4840844;29;20106;-67
2021/12/11 04:56:34;;;;;;;21.48;11.13;;;;;;;;;;4839637;29;20452;-67
2021/12/11 05:09:58;;;;;;;21.40;10.55;;;;;;;;;;4840846;29;20117;-67
2021/12/11 05:14:52;;;;;;;25.52;12.93;;;;;;;;;;4840582;29;20041;-67
2021/12/11 05:17:19;;;;;;;26.92;13.32;;;;;;;;;;4839933;29;20034;-68
2021/12/11 05:19:46;;;;;;;26.95;13.20;;;;;;;;;;4840930;29;20109;-68
2021/12/11 05:22:14;;;;;;;22.77;13.85;;;;;;;;;;4840964;29;20409;-67
2021/12/11 05:24:44;;;;;;;27.05;15.57;;;;;;;;;;4841263;29;20113;-68
2021/12/11 05:27:10;;;;;;;31.83;17.63;;;;;;;;;;4841620;29;20090;-68
2021/12/11 05:29:36;;;;;;;30.55;17.95;;;;;;;;;;4840648;29;20034;-66
2021/12/11 05:32:04;;;;;;;29.48;15.75;;;;;;;;;;4840178;29;20133;-68
2021/12/11 05:34:30;;;;;;;31.08;16.70;;;;;;;;;;4840763;29;20124;-67
2021/12/11 05:36:56;;;;;;;24.95;14.85;;;;;;;;;;4840856;29;20113;-67
2021/12/11 05:39:22;;;;;;;26.83;14.65;;;;;;;;;;4840257;29;20022;-67
2021/12/11 05:41:49;;;;;;;28.60;14.98;;;;;;;;;;4840404;29;20042;-67
2021/12/11 05:44:17;;;;;;;24.33;13.70;;;;;;;;;;4840613;29;20470;-67
2021/12/11 05:46:45;;;;;;;23.50;13.48;;;;;;;;;;4842919;29;20042;-67
2021/12/11 05:49:12;;;;;;;25.73;12.70;;;;;;;;;;4843185;29;20030;-67
2021/12/11 05:51:40;;;;;;;18.60;11.93;;;;;;;;;;4843249;29;20053;-67
2021/12/11 05:54:21;;;;;;;27.52;13.52;;;;;;;;;;4843852;29;20036;-69
2021/12/11 05:56:47;;;;;;;21.58;11.50;;;;;;;;;;4838406;29;20050;-70
2021/12/11 05:59:16;;;;;;;18.60;10.73;;;;;;;;;;4833660;29;20120;-70
2021/12/11 06:01:50;;;;;;;18.85;11.10;;;;;;;;;;4825365;29;20046;-70
2021/12/11 06:04:20;;;;;;;19.42;10.70;;;;;;;;;;4825812;29;20203;-72
2021/12/11 06:06:46;;;;;;;19.45;10.52;;;;;;;;;;4825689;29;20509;-70
2021/12/11 06:09:14;;;;;;;20.45;11.25;;;;;;;;;;4825412;29;20109;-70
2021/12/11 06:11:43;;;;;;;18.65;10.48;;;;;;;;;;4841281;29;20046;-70
2021/12/11 06:14:10;;;;;;;20.30;10.20;;;;;;;;;;4843972;29;20402;-70
2021/12/11 06:16:35;;;;;;;20.38;11.20;;;;;;;;;;4844719;29;20497;-70
2021/12/11 06:19:05;;;;;;;20.90;11.52;;;;;;;;;;4844660;29;20069;-70
2021/12/11 06:21:33;;;;;;;26.50;14.00;;;;;;;;;;4844339;29;20041;-70
2021/12/11 06:23:59;;;;;;;59.35;30.02;;;;;;;;;;4844287;29;20078;-70
2021/12/11 06:26:25;;;;;;;31.73;17.90;;;;;;;;;;4844561;29;20493;-69
2021/12/11 06:28:52;;;;;;;31.58;16.85;;;;;;;;;;4844748;29;20026;-69
2021/12/11 06:31:19;;;;;;;28.85;15.43;;;;;;;;;;4844267;29;20077;-70
2021/12/11 06:33:50;;;;;;;27.30;15.15;;;;;;;;;;4844225;29;20074;-73
2021/12/11 06:36:19;;;;;;;31.70;16.35;;;;;;;;;;4844306;29;20504;-75
2021/12/11 06:38:48;;;;;;;27.83;15.50;;;;;;;;;;4842592;29;20133;-74
2021/12/11 06:41:16;;;;;;;29.83;14.65;;;;;;;;;;4844170;29;20042;-74
2021/12/11 06:43:42;;;;;;;24.90;15.02;;;;;;;;;;4844327;29;20054;-71
2021/12/11 06:46:09;;;;;;;24.15;14.38;;;;;;;;;;4843867;29;20089;-71
2021/12/11 06:48:35;;;;;;;27.85;14.57;;;;;;;;;;4844448;29;20037;-69
2021/12/11 06:51:04;;;;;;;25.10;14.23;;;;;;;;;;4843311;29;20030;-70
2021/12/11 06:53:44;;;;;;;29.48;16.95;;;;;;;;;;4843971;29;20048;-69
2021/12/11 06:56:13;;;;;;;25.92;14.85;;;;;;;;;;4843950;29;20030;-70
2021/12/11 06:58:40;;;;;;;23.27;13.65;;;;;;;;;;4843641;29;20465;-70
2021/12/11 07:01:07;;;;;;;25.45;13.52;;;;;;;;;;4843847;29;20050;-71
2021/12/11 07:03:33;;;;;;;24.60;13.27;;;;;;;;;;4843486;29;20054;-72
2021/12/11 07:06:00;;;;;;;22.88;12.63;;;;;;;;;;4843746;29;20113;-71
2021/12/11 07:08:28;;;;;;;26.90;12.63;;;;;;;;;;4842423;29;20034;-72
2021/12/11 07:10:55;;;;;;;24.17;14.50;;;;;;;;;;4843677;29;20052;-69
2021/12/11 07:13:21;;;;;;;25.73;16.13;;;;;;;;;;4843620;29;20085;-69
2021/12/11 07:15:47;;;;;;;24.20;13.50;;;;;;;;;;4843540;29;20097;-71
2021/12/11 07:18:12;;;;;;;26.80;14.10;;;;;;;;;;4843677;29;20655;-71
2021/12/11 07:20:38;;;;;;;27.33;15.18;;;;;;;;;;4843649;29;20052;-71
2021/12/11 07:23:04;;;;;;;21.33;14.95;;;;;;;;;;4840114;29;20117;-71
2021/12/11 07:26:13;;;;;;;30.08;17.48;;;;;;;;;;4843652;29;20038;-72
2021/12/11 07:28:45;;;;;;;26.05;14.10;;;;;;;;;;4786698;30;20058;-70
2021/12/11 07:31:11;;;;;;;24.15;14.77;;;;;;;;;;4836741;29;20054;-71
2021/12/11 07:33:38;;;;;;;26.23;13.98;;;;;;;;;;4843540;29;20038;-71
2021/12/11 07:36:04;;;;;;;28.85;14.90;;;;;;;;;;4843376;29;20038;-71
2021/12/11 07:38:32;;;;;;;28.63;16.13;;;;;;;;;;4841343;29;20106;-72
2021/12/11 07:41:02;;;;;;;34.78;17.48;;;;;;;;;;4834105;29;20488;-71
2021/12/11 07:43:29;;;;;;;36.50;19.85;;;;;;;;;;4849396;29;20057;-69
2021/12/11 07:45:56;;;;;;;33.50;16.85;;;;;;;;;;4841780;29;20038;-70
2021/12/11 07:48:23;;;;;;;42.85;21.00;;;;;;;;;;4843074;29;20386;-74
2021/12/11 07:50:49;;;;;;;51.53;26.25;;;;;;;;;;4842464;29;20381;-72
2021/12/11 07:53:17;;;;;;;41.28;22.20;;;;;;;;;;4841756;29;20498;-73
2021/12/11 07:55:43;;;;;;;38.70;20.35;;;;;;;;;;4842937;29;20128;-70
2021/12/11 07:58:09;;;;;;;28.30;17.48;;;;;;;;;;4842294;29;20073;-70
2021/12/11 08:00:38;;;;;;;25.00;14.00;;;;;;;;;;4842618;29;20030;-76
2021/12/11 08:03:07;;;;;;;27.45;14.40;;;;;;;;;;4836527;29;20054;-68
2021/12/11 08:05:33;;;;;;;23.13;13.82;;;;;;;;;;4831833;29;20071;-70
2021/12/11 08:08:01;;;;;;;29.58;15.25;;;;;;;;;;4833034;29;20546;-74
2021/12/11 08:10:30;;;;;;;38.33;22.58;;;;;;;;;;4831489;29;20110;-76
2021/12/11 08:12:57;;;;;;;54.45;37.20;;;;;;;;;;4837619;29;20513;-73
2021/12/11 08:15:23;;;;;;;46.03;28.63;;;;;;;;;;4842188;29;20021;-74
2021/12/11 08:17:54;;;;;;;37.05;22.65;;;;;;;;;;4842438;29;20033;-72
2021/12/11 08:20:23;;;;;;;29.65;16.77;;;;;;;;;;4842497;29;20049;-72
2021/12/11 08:22:51;;;;;;;25.50;11.63;;;;;;;;;;4842155;29;20030;-73
2021/12/11 08:25:18;;;;;;;22.58;12.82;;;;;;;;;;4842167;29;20599;-73
2021/12/11 08:27:44;;;;;;;27.38;15.38;;;;;;;;;;4828953;29;20041;-78
2021/12/11 08:30:11;;;;;;;25.42;13.77;;;;;;;;;;4823970;29;20188;-74
2021/12/11 08:32:37;;;;;;;30.48;17.70;;;;;;;;;;4825278;29;20493;-75
2021/12/11 08:35:06;;;;;;;27.02;14.55;;;;;;;;;;4842362;29;20038;-72
2021/12/11 08:37:32;;;;;;;34.13;15.15;;;;;;;;;;4842296;29;20046;-76
2021/12/11 08:39:58;;;;;;;28.48;14.95;;;;;;;;;;4840546;29;20052;-75
2021/12/11 08:42:25;;;;;;;52.22;23.65;;;;;;;;;;4839809;29;20419;-74
2021/12/11 08:44:57;;;;;;;43.78;23.02;;;;;;;;;;4840853;29;20486;-77
2021/12/11 08:47:23;;;;;;;43.70;20.60;;;;;;;;;;4841874;29;20113;-73
2021/12/11 08:49:51;;;;;;;36.50;18.80;;;;;;;;;;4841898;29;20037;-74
2021/12/11 08:52:22;;;;;;;40.15;22.33;;;;;;;;;;4841833;29;20049;-74
2021/12/11 08:54:48;;;;;;;43.50;24.20;;;;;;;;;;4840409;29;20046;-73
2021/12/11 08:57:19;;;;;;;49.80;22.45;;;;;;;;;;4841926;29;20109;-73
2021/12/11 08:59:50;;;;;;;34.72;19.40;;;;;;;;;;4841730;29;20090;-75
2021/12/11 09:02:49;;;;;;;39.15;21.95;;;;;;;;;;4841562;29;20072;-76
2021/12/11 09:05:23;;;;;;;44.92;22.17;;;;;;;;;;4840746;29;20447;-73
2021/12/11 09:08:04;;;;;;;40.45;22.55;;;;;;;;;;4841754;29;20112;-75
2021/12/11 09:10:39;;;;;;;29.88;14.90;;;;;;;;;;4841376;29;20041;-75
2021/12/11 09:13:07;;;;;;;27.52;12.95;;;;;;;;;;4840782;29;20038;-76
2021/12/11 09:15:42;;;;;;;27.88;12.27;;;;;;;;;;4841055;29;20463;-74
2021/12/11 09:18:26;;;;;;;21.98;8.63;;;;;;;;;;4841674;29;20042;-73
2021/12/11 09:21:07;;;;;;;20.48;7.70;;;;;;;;;;4841007;29;20026;-77
2021/12/11 09:23:42;;;;;;;12.75;6.15;;;;;;;;;;4841479;29;20050;-75
2021/12/11 09:26:28;;;;;;;18.58;9.60;;;;;;;;;;4841612;29;20046;-74
2021/12/11 09:29:06;;;;;;;18.70;7.80;;;;;;;;;;4841304;29;20058;-74
2021/12/11 09:31:57;;;;;;;16.15;8.27;;;;;;;;;;4841910;29;20129;-73
2021/12/11 09:34:27;;;;;;;17.50;10.15;;;;;;;;;;4841710;29;20417;-71
2021/12/11 09:36:57;;;;;;;24.73;13.23;;;;;;;;;;4841656;29;20052;-70
2021/12/11 09:39:25;;;;;;;25.27;14.43;;;;;;;;;;4840240;29;20449;-74
2021/12/11 09:41:50;;;;;;;23.65;12.00;;;;;;;;;;4841402;29;20034;-70
2021/12/11 09:44:24;;;;;;;23.15;13.05;;;;;;;;;;4841343;29;20042;-71
2021/12/11 09:47:10;;;;;;;21.63;10.45;;;;;;;;;;4841381;29;20527;-69
2021/12/11 09:49:42;;;;;;;25.52;11.10;;;;;;;;;;4841088;29;20038;-73
2021/12/11 09:52:23;;;;;;;21.50;12.23;;;;;;;;;;4841276;29;20125;-70
2021/12/11 09:55:02;;;;;;;15.88;9.07;;;;;;;;;;4841378;29;20109;-69
2021/12/11 09:57:34;;;;;;;20.17;9.57;;;;;;;;;;4840478;29;20438;-72
2021/12/11 10:00:05;;;;;;;27.90;11.38;;;;;;;;;;4840986;29;20045;-73
2021/12/11 10:02:40;;;;;;;20.98;9.30;;;;;;;;;;4841196;29;20083;-69
2021/12/11 10:05:28;;;;;;;26.95;12.05;;;;;;;;;;4840792;29;20042;-71
2021/12/11 10:08:13;;;;;;;21.02;10.57;;;;;;;;;;4841280;29;20113;-74
2021/12/11 10:10:40;;;;;;;18.80;10.40;;;;;;;;;;4840969;29;20038;-74
2021/12/11 10:13:05;;;;;;;28.92;11.02;;;;;;;;;;4841072;29;20034;-75
2021/12/11 10:15:34;;;;;;;21.25;9.98;;;;;;;;;;4840433;29;20045;-70
2021/12/11 10:18:20;;;;;;;19.80;9.45;;;;;;;;;;4840710;29;20491;-69
2021/12/11 10:20:52;;;;;;;17.08;8.93;;;;;;;;;;4840530;29;20060;-69
2021/12/11 10:23:22;;;;;;;22.33;9.85;;;;;;;;;;4840539;29;20045;-69
2021/12/11 10:25:50;;;;;;;18.45;9.32;;;;;;;;;;4839629;29;20042;-69
2021/12/11 10:28:19;;;;;;;24.25;9.50;;;;;;;;;;4840547;29;20117;-71
2021/12/11 10:30:50;;;;;;;22.52;11.30;;;;;;;;;;4840836;29;20045;-72
2021/12/11 10:33:19;;;;;;;23.45;12.38;;;;;;;;;;4843943;29;20038;-71
2021/12/11 10:35:49;;;;;;;24.65;12.35;;;;;;;;;;4844124;29;20022;-70
2021/12/11 10:38:16;;;;;;;23.10;13.15;;;;;;;;;;4844051;29;20049;-72
2021/12/11 10:40:49;;;;;;;22.08;10.73;;;;;;;;;;4843944;29;20054;-75
2021/12/11 10:43:28;;;;;;;23.10;11.32;;;;;;;;;;4843973;29;20048;-72
2021/12/11 10:45:54;;;;;;;19.98;10.85;;;;;;;;;;4844018;29;20132;-75
2021/12/11 10:48:25;;;;;;;20.20;10.23;;;;;;;;;;4843722;29;20580;-76
2021/12/11 10:51:01;;;;;;;18.83;9.85;;;;;;;;;;4843216;29;20206;-74
2021/12/11 10:53:29;;;;;;;16.35;8.52;;;;;;;;;;4843711;29;20095;-74
2021/12/11 10:55:57;;;;;;;14.52;8.07;;;;;;;;;;4843632;29;20037;-72
2021/12/11 10:58:28;;;;;;;17.63;7.63;;;;;;;;;;4843029;29;20057;-72
2021/12/11 11:01:06;;;;;;;15.70;7.60;;;;;;;;;;4843322;29;20100;-72
2021/12/11 11:03:38;;;;;;;14.90;8.77;;;;;;;;;;4842988;29;20100;-72
2021/12/11 11:06:06;;;;;;;16.48;9.23;;;;;;;;;;4843757;29;20517;-70
2021/12/11 11:08:32;;;;;;;17.58;10.05;;;;;;;;;;4843546;29;20034;-70
2021/12/11 11:11:05;;;;;;;22.80;11.13;;;;;;;;;;4843716;29;20399;-73
2021/12/11 11:13:33;;;;;;;17.98;10.52;;;;;;;;;;4842166;29;20058;-75
2021/12/11 11:15:59;;;;;;;17.20;10.32;;;;;;;;;;4842999;29;20094;-73
2021/12/11 11:18:27;;;;;;;25.42;12.10;;;;;;;;;;4842803;29;20053;-72
2021/12/11 11:21:02;;;;;;;23.67;13.32;;;;;;;;;;4844510;29;20113;-74
2021/12/11 11:23:29;;;;;;;21.25;11.35;;;;;;;;;;4842568;29;20141;-72
2021/12/11 11:25:57;;;;;;;23.85;13.55;;;;;;;;;;4843110;29;20030;-73
2021/12/11 11:28:30;;;;;;;25.65;13.68;;;;;;;;;;4841253;29;20122;-70
2021/12/11 11:31:00;;;;;;;21.53;11.90;;;;;;;;;;4843165;29;20034;-70
2021/12/11 11:33:27;;;;;;;23.33;13.57;;;;;;;;;;4842435;29;20497;-72
2021/12/11 11:35:53;;;;;;;21.15;13.20;;;;;;;;;;4843303;29;20082;-71
2021/12/11 11:38:26;;;;;;;22.45;12.88;;;;;;;;;;4839278;29;20053;-74
2021/12/11 11:40:56;;;;;;;21.75;12.63;;;;;;;;;;4840594;29;20044;-70
2021/12/11 11:43:24;;;;;;;19.27;11.13;;;;;;;;;;4833734;29;20482;-72
2021/12/11 11:45:52;;;;;;;31.90;17.75;;;;;;;;;;4832430;29;20082;-73
2021/12/11 11:48:26;;;;;;;25.20;14.68;;;;;;;;;;4833091;29;20041;-73
2021/12/11 11:50:55;;;;;;;20.27;13.38;;;;;;;;;;4842721;29;20034;-72
2021/12/11 11:53:24;;;;;;;20.23;13.55;;;;;;;;;;4839491;29;20034;-71
2021/12/11 11:56:02;;;;;;;18.30;12.35;;;;;;;;;;4842717;29;20492;-72
2021/12/11 11:58:30;;;;;;;19.85;13.05;;;;;;;;;;4839142;29;20030;-72
2021/12/11 12:01:06;;;;;;;21.13;13.45;;;;;;;;;;4842510;29;20117;-68
2021/12/11 12:03:33;;;;;;;21.02;11.52;;;;;;;;;;4837411;29;20055;-71
2021/12/11 12:06:03;;;;;;;23.85;12.23;;;;;;;;;;4830012;29;20058;-74
2021/12/11 12:08:29;;;;;;;12.40;7.40;;;;;;;;;;4839469;29;20148;-71
2021/12/11 12:10:57;;;;;;;13.20;7.93;;;;;;;;;;4842188;29;20069;-71
2021/12/11 12:13:26;;;;;;;15.63;8.80;;;;;;;;;;4842318;29;20034;-71
2021/12/11 12:15:58;;;;;;;11.50;7.22;;;;;;;;;;4842290;29;20045;-68
2021/12/11 12:18:27;;;;;;;15.82;8.70;;;;;;;;;;4842045;29;20034;-71
2021/12/11 12:20:55;;;;;;;22.77;12.68;;;;;;;;;;4842168;29;20383;-68
2021/12/11 12:23:22;;;;;;;36.00;19.52;;;;;;;;;;4841858;29;20041;-69
2021/12/11 12:25:53;;;;;;;25.35;14.98;;;;;;;;;;4841596;29;20042;-71
2021/12/11 12:28:19;;;;;;;32.15;17.63;;;;;;;;;;4834322;29;20040;-74
2021/12/11 12:30:54;;;;;;;22.67;14.90;;;;;;;;;;4823847;29;20489;-76
2021/12/11 12:33:21;;;;;;;34.72;17.58;;;;;;;;;;4823595;29;20034;-71
2021/12/11 12:35:48;;;;;;;32.67;18.08;;;;;;;;;;4828399;29;20072;-75
2021/12/11 12:38:17;;;;;;;29.83;17.00;;;;;;;;;;4832110;29;21424;-68
2021/12/11 12:41:00;;;;;;;27.48;17.17;;;;;;;;;;4831685;29;20110;-77
2021/12/11 12:46:14;;;;;;;28.67;17.60;;;;;;;;;;4842067;29;20117;-72
2021/12/11 12:48:40;;;;;;;28.05;17.38;;;;;;;;;;4841792;29;20029;-76
2021/12/11 12:51:09;;;;;;;31.90;18.25;;;;;;;;;;4841793;29;20034;-75
2021/12/11 12:53:36;;;;;;;33.40;18.63;;;;;;;;;;4841920;29;20034;-76
2021/12/11 12:56:09;;;;;;;20.75;13.85;;;;;;;;;;4841168;29;20041;-70
2021/12/11 12:58:40;;;;;;;23.13;13.50;;;;;;;;;;4841527;29;20389;-70
2021/12/11 13:01:11;;;;;;;20.08;12.82;;;;;;;;;;4841675;29;20038;-71
2021/12/11 13:03:40;;;;;;;22.80;13.45;;;;;;;;;;4836380;29;20474;-75
2021/12/11 13:06:15;;;;;;;28.73;17.20;;;;;;;;;;4840753;29;20085;-73
2021/12/11 13:08:55;;;;;;;28.25;16.17;;;;;;;;;;4840612;29;20048;-74
2021/12/11 13:11:27;;;;;;;24.80;14.60;;;;;;;;;;4840857;29;20094;-73
2021/12/11 13:13:54;;;;;;;15.05;9.18;;;;;;;;;;4840798;29;20030;-75
2021/12/11 13:16:24;;;;;;;28.77;15.40;;;;;;;;;;4840593;29;20030;-70
2021/12/11 13:18:57;;;;;;;22.25;13.50;;;;;;;;;;4836736;29;20038;-69
2021/12/11 13:21:38;;;;;;;18.08;9.13;;;;;;;;;;4841011;29;20038;-71
2021/12/11 13:24:07;;;;;;;14.88;9.95;;;;;;;;;;4837725;29;20053;-73
2021/12/11 13:26:35;;;;;;;15.48;8.88;;;;;;;;;;4830763;29;20030;-70
2021/12/11 13:29:05;;;;;;;19.38;10.80;;;;;;;;;;4822425;29;20543;-71
2021/12/11 13:31:36;;;;;;;15.70;10.32;;;;;;;;;;4822133;29;20266;-69
2021/12/11 13:34:03;;;;;;;22.73;14.52;;;;;;;;;;4834891;29;20509;-73
2021/12/11 13:36:29;;;;;;;22.77;12.45;;;;;;;;;;4840029;29;20021;-71
2021/12/11 13:38:55;;;;;;;16.25;10.38;;;;;;;;;;4840053;29;20053;-73
2021/12/11 13:41:35;;;;;;;10.65;6.85;;;;;;;;;;4840481;29;20049;-75
2021/12/11 13:44:03;;;;;;;11.80;6.90;;;;;;;;;;4839794;29;20497;-71
2021/12/11 13:46:29;;;;;;;18.67;10.85;;;;;;;;;;4831939;29;20077;-67
2021/12/11 13:48:56;;;;;;;16.60;10.95;;;;;;;;;;4829817;29;20057;-70
2021/12/11 13:51:25;;;;;;;16.40;10.48;;;;;;;;;;4837274;29;20410;-70
2021/12/11 13:53:52;;;;;;;23.27;13.98;;;;;;;;;;4825104;29;20034;-70
2021/12/11 13:56:26;;;;;;;28.80;17.67;;;;;;;;;;4840897;29;20041;-70
2021/12/11 13:58:53;;;;;;;20.50;12.10;;;;;;;;;;4840236;29;20427;-70
2021/12/11 14:01:29;;;;;;;14.18;8.70;;;;;;;;;;4839181;29;20512;-71
2021/12/11 14:03:57;;;;;;;11.13;6.78;;;;;;;;;;4834849;29;20136;-69
2021/12/11 14:06:27;;;;;;;15.77;8.18;;;;;;;;;;4830722;29;20038;-71
2021/12/11 14:09:05;;;;;;;24.02;13.38;;;;;;;;;;4826370;29;20045;-73
2021/12/11 14:11:34;;;;;;;23.38;13.20;;;;;;;;;;4826625;29;20041;-70
2021/12/11 14:14:00;;;;;;;25.05;13.90;;;;;;;;;;4825618;29;20042;-74
2021/12/11 14:16:26;;;;;;;23.38;12.30;;;;;;;;;;4830785;29;20030;-71
2021/12/11 14:18:52;;;;;;;19.13;10.23;;;;;;;;;;4843467;29;20462;-69
2021/12/11 14:21:19;;;;;;;9.18;5.47;;;;;;;;;;4829811;29;20042;-69
2021/12/11 14:23:50;;;;;;;10.07;6.85;;;;;;;;;;4839806;29;20030;-69
2021/12/11 14:26:21;;;;;;;26.17;18.38;;;;;;;;;;4838985;29;20038;-75
2021/12/11 14:28:52;;;;;;;17.70;11.60;;;;;;;;;;4843228;29;20037;-71
2021/12/11 14:31:20;;;;;;;21.95;14.20;;;;;;;;;;4843453;29;20061;-72
2021/12/11 14:33:48;;;;;;;25.25;15.85;;;;;;;;;;4842903;29;20062;-69
2021/12/11 14:36:19;;;;;;;27.98;16.90;;;;;;;;;;4843617;29;20038;-70
2021/12/11 14:38:46;;;;;;;20.17;14.48;;;;;;;;;;4842500;29;20053;-75
2021/12/11 14:41:13;;;;;;;16.33;10.55;;;;;;;;;;4830740;29;20062;-75
2021/12/11 14:43:40;;;;;;;12.60;7.75;;;;;;;;;;4843206;29;20037;-72
2021/12/11 14:46:08;;;;;;;9.05;5.60;;;;;;;;;;4833547;29;20034;-75
2021/12/11 14:48:35;;;;;;;11.98;7.20;;;;;;;;;;4844551;29;20038;-75
2021/12/11 14:51:08;;;;;;;11.68;6.85;;;;;;;;;;4844260;29;20081;-74
2021/12/11 14:53:36;;;;;;;;;;;;;;;;;;4835279;29;20045;-75
2021/12/11 14:56:09;;;;;;;16.52;11.68;;;;;;;;;;4828186;29;19923;-74
2021/12/11 14:58:37;;;;;;;13.90;9.60;;;;;;;;;;4840211;29;20034;-75
2021/12/11 15:01:10;;;;;;;14.85;9.68;;;;;;;;;;4842560;29;20042;-75